Time;durP1;ratioP1;P1;durP2;ratioP2;P2;SDS_P1;SDS_P2;PMS_P1;PMS_P2;Temp;Humidity;BMP_temperature;BMP_pressure;BME280_temperature;BME280_humidity;BME280_pressure;Samples;Min_cycle;Max_cycle;Signal;HPM_P1;HPM_P2
2022/10/27 00:00:00;;;;;;;8.45;4.30;;;;;;;13.33;81.96;100673.13;1087544;54;20057;-79
2022/10/27 00:01:01;;;;;;;7.93;4.85;;;;;;;13.34;81.92;100669.44;1087573;54;20034;-79
2022/10/27 00:02:09;;;;;;;8.68;4.47;;;;;;;13.38;81.74;100668.19;1087551;54;20030;-79
2022/10/27 00:03:12;;;;;;;8.80;4.28;;;;;;;13.37;81.70;100669.16;1087304;54;20034;-79
2022/10/27 00:04:16;;;;;;;10.75;4.85;;;;;;;13.33;81.91;100668.63;1091094;31;20669;-78
2022/10/27 00:05:18;;;;;;;7.95;4.40;;;;;;;13.36;82.08;100662.09;1088022;46;20061;-80
2022/10/27 00:06:22;;;;;;;7.65;4.40;;;;;;;13.44;81.46;100670.28;1087715;54;20038;-78
2022/10/27 00:07:24;;;;;;;6.60;4.03;;;;;;;13.50;81.43;100667.03;1087636;54;20050;-79
2022/10/27 00:08:28;;;;;;;6.07;3.35;;;;;;;13.56;80.91;100663.75;1087745;54;20042;-79
2022/10/27 00:09:29;;;;;;;7.22;3.72;;;;;;;13.60;81.07;100666.97;1090637;39;20522;-79
2022/10/27 00:10:34;;;;;;;6.85;3.60;;;;;;;13.65;80.66;100669.19;1087636;54;20034;-79
2022/10/27 00:11:35;;;;;;;7.65;3.90;;;;;;;13.67;80.53;100665.38;1087733;54;20038;-79
2022/10/27 00:12:39;;;;;;;6.28;3.63;;;;;;;13.70;80.43;100658.84;1087582;54;20038;-79
2022/10/27 00:13:41;;;;;;;5.78;3.72;;;;;;;13.70;80.21;100664.22;1087626;54;20034;-79
2022/10/27 00:14:45;;;;;;;6.18;3.70;;;;;;;13.71;80.42;100661.41;1088515;39;20318;-79
2022/10/27 00:15:55;;;;;;;7.40;3.95;;;;;;;13.70;80.17;100658.84;1087610;54;20073;-79
2022/10/27 00:16:59;;;;;;;6.18;3.63;;;;;;;13.66;80.36;100666.34;1087546;54;20035;-78
2022/10/27 00:18:06;;;;;;;7.82;4.10;;;;;;;13.68;80.12;100667.06;1087670;54;20035;-79
2022/10/27 00:19:10;;;;;;;7.95;3.97;;;;;;;13.71;79.93;100661.41;1087577;54;20068;-80
2022/10/27 00:20:12;;;;;;;7.80;4.35;;;;;;;13.68;79.99;100672.44;1087633;54;20050;-79
2022/10/27 00:21:19;;;;;;;7.07;3.92;;;;;;;13.67;79.89;100670.75;1087687;54;20052;-79
2022/10/27 00:22:21;;;;;;;9.52;4.28;;;;;;;13.64;80.14;100675.56;1087632;54;20034;-78
2022/10/27 00:23:25;;;;;;;7.03;3.65;;;;;;;13.66;80.19;100663.66;1087678;54;20030;-79
2022/10/27 00:24:29;;;;;;;7.68;3.83;;;;;;;13.56;80.15;100674.47;1087656;54;20046;-79
2022/10/27 00:25:30;;;;;;;6.47;3.55;;;;;;;13.64;79.97;100667.50;1087706;54;20039;-79
2022/10/27 00:26:35;;;;;;;8.27;4.25;;;;;;;13.63;80.05;100669.38;1087684;54;20037;-78
2022/10/27 00:27:36;;;;;;;7.05;3.67;;;;;;;13.64;80.16;100686.31;1087539;54;20065;-79
2022/10/27 00:28:41;;;;;;;5.47;3.75;;;;;;;13.62;79.98;100683.78;1087660;54;20030;-78
2022/10/27 00:29:43;;;;;;;6.25;4.20;;;;;;;13.62;79.85;100682.91;1087750;54;20042;-79
2022/10/27 00:30:48;;;;;;;7.18;3.78;;;;;;;13.57;80.29;100678.00;1087828;54;20122;-79
2022/10/27 00:31:49;;;;;;;8.00;3.72;;;;;;;13.56;80.03;100679.00;1088843;46;20677;-79
2022/10/27 00:32:56;;;;;;;8.05;4.55;;;;;;;13.57;80.37;100676.19;1087699;54;20035;-80
2022/10/27 00:34:00;;;;;;;7.68;3.88;;;;;;;13.57;80.30;100678.88;1087592;54;20053;-78
2022/10/27 00:35:04;;;;;;;7.60;4.25;;;;;;;13.55;80.29;100683.53;1087675;54;20065;-80
2022/10/27 00:36:07;;;;;;;6.53;4.10;;;;;;;13.55;80.51;100686.22;1087765;54;20065;-78
2022/10/27 00:37:11;;;;;;;7.05;4.10;;;;;;;13.51;80.67;100676.75;1087666;54;20038;-79
2022/10/27 00:38:13;;;;;;;7.07;4.43;;;;;;;13.50;80.47;100680.47;1088408;31;20633;-81
2022/10/27 00:39:17;;;;;;;7.78;4.20;;;;;;;13.52;80.74;100683.00;1088123;46;20026;-78
2022/10/27 00:40:18;;;;;;;6.88;4.13;;;;;;;13.48;80.72;100686.94;1087577;54;20030;-79
2022/10/27 00:41:28;;;;;;;7.57;4.38;;;;;;;13.47;80.79;100691.50;1087603;54;20187;-78
2022/10/27 00:42:30;;;;;;;8.98;3.75;;;;;;;13.48;80.79;100695.88;1087623;54;20050;-79
2022/10/27 00:43:36;;;;;;;8.27;4.63;;;;;;;13.51;80.53;100689.34;1087551;54;20031;-79
2022/10/27 00:44:39;;;;;;;8.38;4.78;;;;;;;13.50;80.64;100691.19;1087665;54;20061;-79
2022/10/27 00:45:43;;;;;;;9.07;3.88;;;;;;;13.53;80.90;100695.44;1087542;54;20038;-79
2022/10/27 00:46:46;;;;;;;7.35;3.70;;;;;;;13.53;80.80;100696.25;1087692;54;20019;-79
2022/10/27 00:47:51;;;;;;;7.97;4.57;;;;;;;13.53;80.63;100696.25;1087520;54;20034;-79
2022/10/27 00:48:57;;;;;;;8.38;4.30;;;;;;;13.40;81.19;100691.22;1087640;54;20042;-79
2022/10/27 00:50:07;;;;;;;9.77;5.35;;;;;;;13.37;81.10;100696.00;1087552;54;20091;-79
2022/10/27 00:51:11;;;;;;;8.32;5.10;;;;;;;13.34;81.02;100704.34;1087651;54;20023;-79
2022/10/27 00:52:22;;;;;;;9.07;5.03;;;;;;;13.34;81.35;100701.66;1088277;46;20670;-80
2022/10/27 00:53:23;;;;;;;10.55;5.25;;;;;;;13.30;81.33;100702.97;1087475;54;20054;-79
2022/10/27 00:54:32;;;;;;;7.53;4.30;;;;;;;13.30;81.21;100700.28;1087613;54;20042;-79
2022/10/27 00:55:38;;;;;;;8.65;4.65;;;;;;;13.31;81.26;100702.00;1087613;54;20045;-79
2022/10/27 00:56:43;;;;;;;7.10;4.38;;;;;;;13.30;81.29;100700.28;1087641;54;20030;-79
2022/10/27 00:57:48;;;;;;;8.07;4.57;;;;;;;13.29;81.25;100699.44;1088697;46;20776;-78
2022/10/27 00:58:53;;;;;;;7.00;4.35;;;;;;;13.27;81.39;100706.81;1087971;39;20561;-79
2022/10/27 00:59:56;;;;;;;7.10;4.30;;;;;;;13.25;81.25;100704.25;1088114;46;20775;-78
2022/10/27 01:01:00;;;;;;;9.02;4.88;;;;;;;13.29;81.33;100696.75;1087516;54;20081;-80
2022/10/27 01:02:02;;;;;;;7.05;4.13;;;;;;;13.27;81.30;100698.75;1087588;54;20034;-79
2022/10/27 01:03:09;;;;;;;10.63;4.88;;;;;;;13.31;80.97;100697.44;1087607;54;20022;-79
2022/10/27 01:04:12;;;;;;;9.35;4.85;;;;;;;13.24;81.21;100707.09;1087640;54;20031;-79
2022/10/27 01:05:21;;;;;;;14.75;5.68;;;;;;;13.21;81.58;100702.00;1087679;54;20019;-78
2022/10/27 01:06:24;;;;;;;10.02;5.72;;;;;;;13.11;81.53;100697.50;1087632;54;20042;-79
2022/10/27 01:07:29;;;;;;;10.77;5.13;;;;;;;13.08;81.76;100699.63;1087576;54;20064;-79
2022/10/27 01:08:31;;;;;;;10.02;5.38;;;;;;;13.00;82.21;100702.22;1092703;39;21031;-79
2022/10/27 01:09:35;;;;;;;10.20;5.65;;;;;;;12.97;82.24;100699.81;1087704;54;20034;-79
2022/10/27 01:10:37;;;;;;;11.65;4.82;;;;;;;12.99;82.13;100700.50;1087576;54;20061;-80
2022/10/27 01:11:41;;;;;;;10.70;5.07;;;;;;;12.98;81.89;100697.00;1087525;54;20054;-79
2022/10/27 01:12:44;;;;;;;16.20;5.97;;;;;;;12.88;82.08;100694.31;1087498;54;20042;-79
2022/10/27 01:13:48;;;;;;;13.02;6.32;;;;;;;12.84;82.51;100689.38;1087550;54;20045;-79
2022/10/27 01:14:50;;;;;;;9.88;5.20;;;;;;;12.85;82.66;100697.28;1087581;54;20030;-79
2022/10/27 01:16:06;;;;;;;12.90;5.72;;;;;;;12.83;82.52;100699.28;1087617;54;20030;-79
2022/10/27 01:17:17;;;;;;;12.43;5.75;;;;;;;12.79;82.85;100700.53;1087603;54;20742;-79
2022/10/27 01:18:28;;;;;;;11.88;5.45;;;;;;;12.79;83.02;100693.34;1087600;54;20014;-79
2022/10/27 01:20:08;;;;;;;8.90;5.07;;;;;;;12.71;83.21;100693.19;1087711;54;20039;-79
2022/10/27 01:21:44;;;;;;;8.00;4.50;;;;;;;12.63;83.13;100687.69;1087672;54;20018;-79
2022/10/27 01:22:51;;;;;;;16.25;4.95;;;;;;;12.62;83.41;100686.88;1087565;54;20086;-79
2022/10/27 01:24:17;;;;;;;10.68;5.07;;;;;;;12.60;83.47;100694.22;1087792;54;20052;-79
2022/10/27 01:25:51;;;;;;;10.52;5.68;;;;;;;12.58;83.22;100690.81;1087738;54;20027;-79
2022/10/27 01:26:59;;;;;;;10.68;4.28;;;;;;;12.62;83.43;100692.22;1087489;54;20037;-79
2022/10/27 01:28:24;;;;;;;8.52;4.30;;;;;;;12.57;83.25;100689.13;1087516;54;20066;-80
2022/10/27 01:29:49;;;;;;;7.80;4.20;;;;;;;12.54;83.25;100693.91;1088150;54;20057;-80
2022/10/27 01:31:02;;;;;;;7.80;4.40;;;;;;;12.56;83.03;100691.94;1088715;46;20053;-80
2022/10/27 01:32:17;;;;;;;9.48;4.65;;;;;;;12.55;83.30;100685.75;1090346;46;20078;-79
2022/10/27 01:33:23;;;;;;;9.02;4.55;;;;;;;12.53;83.18;100694.91;1091559;46;20018;-80
2022/10/27 01:34:32;;;;;;;13.82;4.57;;;;;;;12.56;83.06;100690.13;1088042;54;20077;-79
2022/10/27 01:35:43;;;;;;;7.68;4.03;;;;;;;12.59;82.64;100680.94;1088066;54;20014;-80
2022/10/27 01:36:52;;;;;;;7.70;4.72;;;;;;;12.58;83.11;100685.44;1088691;47;20026;-80
2022/10/27 01:38:04;;;;;;;9.02;4.70;;;;;;;12.62;82.81;100686.88;1087809;54;20061;-79
2022/10/27 01:39:14;;;;;;;9.90;4.75;;;;;;;12.59;82.79;100684.47;1087932;54;20034;-79
2022/10/27 01:40:23;;;;;;;11.50;4.20;;;;;;;12.54;82.85;100686.75;1087869;54;20034;-79
2022/10/27 01:41:32;;;;;;;8.50;4.90;;;;;;;12.52;83.30;100683.34;1087878;54;20080;-80
2022/10/27 01:42:41;;;;;;;12.73;4.93;;;;;;;12.52;82.77;100685.16;1090729;47;20030;-79
2022/10/27 01:43:48;;;;;;;8.38;4.38;;;;;;;12.54;83.05;100689.41;1087851;54;20031;-79
2022/10/27 01:44:55;;;;;;;9.43;4.22;;;;;;;12.56;82.74;100675.84;1087826;54;20114;-80
2022/10/27 01:46:05;;;;;;;11.48;4.68;;;;;;;12.55;82.68;100677.72;1087980;54;20030;-80
2022/10/27 01:47:08;;;;;;;8.88;4.13;;;;;;;12.59;82.44;100681.78;1087950;54;20031;-80
2022/10/27 01:48:24;;;;;;;10.57;4.72;;;;;;;12.53;82.38;100677.00;1087997;54;20027;-79
2022/10/27 01:49:34;;;;;;;6.88;3.80;;;;;;;12.52;82.88;100683.34;1096267;39;20327;-79
2022/10/27 01:50:40;;;;;;;8.35;4.45;;;;;;;12.54;82.79;100675.16;1087900;54;20368;-79
2022/10/27 01:51:41;;;;;;;7.03;4.15;;;;;;;12.54;82.90;100677.84;1088000;54;20057;-78
2022/10/27 01:52:49;;;;;;;8.13;4.28;;;;;;;12.52;82.69;100680.66;1088057;54;20029;-78
2022/10/27 01:53:52;;;;;;;9.63;4.35;;;;;;;12.51;82.58;100683.50;1088034;54;20038;-78
2022/10/27 01:57:01;;;;;;;8.38;4.00;;;;;;;12.40;83.00;100676.44;1088090;54;20033;-79
2022/10/27 01:58:23;;;;;;;6.65;4.22;;;;;;;12.40;82.62;100679.09;1092593;47;20717;-79
2022/10/27 01:59:41;;;;;;;6.93;3.95;;;;;;;12.38;82.95;100681.94;1087622;54;20094;-78
2022/10/27 02:01:07;;;;;;;9.27;4.35;;;;;;;12.38;82.78;100676.56;1087579;54;20031;-78
2022/10/27 02:02:19;;;;;;;6.40;3.88;;;;;;;12.42;82.81;100679.81;1087656;54;20022;-79
2022/10/27 02:03:25;;;;;;;10.57;3.88;;;;;;;12.48;82.62;100681.91;1087724;54;20034;-79
2022/10/27 02:04:36;;;;;;;7.72;4.05;;;;;;;12.47;82.58;100682.91;1087589;54;20031;-79
2022/10/27 02:05:47;;;;;;;10.32;3.97;;;;;;;12.43;82.79;100677.00;1087598;54;20035;-79
2022/10/27 02:06:59;;;;;;;9.95;4.28;;;;;;;12.49;82.41;100683.63;1087651;54;20038;-78
2022/10/27 02:08:12;;;;;;;7.25;4.20;;;;;;;12.48;82.32;100679.25;1087673;54;20034;-79
2022/10/27 02:09:22;;;;;;;9.07;4.75;;;;;;;12.45;82.41;100679.53;1087547;54;20037;-79
2022/10/27 02:10:26;;;;;;;7.82;4.40;;;;;;;12.45;82.47;100674.19;1087744;54;20061;-79
2022/10/27 02:11:35;;;;;;;8.05;4.63;;;;;;;12.40;82.42;100682.66;1087542;54;20034;-79
2022/10/27 02:12:38;;;;;;;8.07;4.03;;;;;;;12.43;82.20;100670.78;1087506;54;20046;-79
2022/10/27 02:13:46;;;;;;;8.05;4.13;;;;;;;12.45;82.38;100672.34;1087595;54;20081;-80
2022/10/27 02:14:52;;;;;;;9.45;4.13;;;;;;;12.45;82.24;100672.34;1087540;54;20057;-78
2022/10/27 02:16:02;;;;;;;8.30;3.83;;;;;;;12.49;82.35;100680.94;1087681;47;20034;-80
2022/10/27 02:17:11;;;;;;;9.90;4.20;;;;;;;12.46;82.16;100675.88;1087582;54;20068;-79
2022/10/27 02:18:20;;;;;;;10.75;4.20;;;;;;;12.47;82.38;100677.53;1087578;54;20061;-79
2022/10/27 02:19:26;;;;;;;7.93;3.83;;;;;;;12.47;82.13;100667.69;1087513;54;20065;-79
2022/10/27 02:20:35;;;;;;;9.52;4.43;;;;;;;12.50;82.23;100682.63;1088308;31;20757;-79
2022/10/27 02:21:38;;;;;;;8.88;4.50;;;;;;;12.47;81.97;100674.88;1087631;54;20098;-79
2022/10/27 02:22:45;;;;;;;7.95;3.92;;;;;;;12.47;82.25;100672.19;1087506;54;20086;-79
2022/10/27 02:23:47;;;;;;;8.88;4.22;;;;;;;12.45;82.00;100675.00;1087514;54;20042;-79
2022/10/27 02:24:51;;;;;;;10.10;4.10;;;;;;;12.47;82.15;100677.53;1087464;54;20039;-79
2022/10/27 02:25:57;;;;;;;7.05;3.97;;;;;;;12.46;82.21;100665.16;1087528;54;20065;-78
2022/10/27 02:27:06;;;;;;;7.25;4.25;;;;;;;12.46;81.93;100674.03;1087863;54;20879;-79
2022/10/27 02:28:13;;;;;;;7.75;4.30;;;;;;;12.46;82.19;100673.19;1088351;46;20111;-79
2022/10/27 02:29:21;;;;;;;6.72;3.83;;;;;;;12.45;82.16;100676.88;1092030;39;20589;-79
2022/10/27 02:30:23;;;;;;;6.43;3.28;;;;;;;12.46;81.94;100670.50;1088016;54;20058;-79
2022/10/27 02:31:39;;;;;;;7.30;3.03;;;;;;;12.45;81.82;100671.50;1088336;54;20031;-79
2022/10/27 02:32:44;;;;;;;6.80;3.85;;;;;;;12.36;82.20;100669.66;1088274;54;20041;-79
2022/10/27 02:33:52;;;;;;;7.47;4.10;;;;;;;12.37;82.60;100666.00;1088224;54;20041;-79
2022/10/27 02:34:53;;;;;;;6.50;3.67;;;;;;;12.39;82.14;100672.06;1088351;54;20065;-79
2022/10/27 02:36:00;;;;;;;7.18;3.90;;;;;;;12.40;82.08;100673.75;1088253;54;20037;-80
2022/10/27 02:37:03;;;;;;;6.68;3.55;;;;;;;12.41;82.04;100672.75;1088755;46;20057;-79
2022/10/27 02:38:13;;;;;;;7.25;3.33;;;;;;;12.40;82.01;100676.44;1088229;54;20027;-79
2022/10/27 02:39:15;;;;;;;6.93;3.60;;;;;;;12.38;82.09;100673.03;1088106;54;20030;-79
2022/10/27 02:40:19;;;;;;;7.32;3.45;;;;;;;12.41;82.02;100678.13;1087907;54;20114;-79
2022/10/27 02:41:20;;;;;;;9.80;3.70;;;;;;;12.40;82.02;100676.44;1087827;54;20057;-79
2022/10/27 02:42:25;;;;;;;7.20;3.88;;;;;;;12.35;82.10;100673.34;1087867;54;20098;-79
2022/10/27 02:43:26;;;;;;;6.13;3.90;;;;;;;12.35;82.00;100676.84;1087842;54;20749;-80
2022/10/27 02:44:30;;;;;;;6.45;3.70;;;;;;;12.32;82.27;100686.03;1087741;54;20042;-79
2022/10/27 02:45:32;;;;;;;9.52;4.47;;;;;;;12.29;82.28;100680.94;1087747;54;20037;-79
2022/10/27 02:46:36;;;;;;;8.20;4.15;;;;;;;12.31;82.05;100684.31;1087902;54;20031;-80
2022/10/27 02:47:37;;;;;;;6.55;3.70;;;;;;;12.35;81.93;100684.06;1087827;54;20058;-79
2022/10/27 02:48:44;;;;;;;11.32;4.22;;;;;;;12.36;81.93;100680.41;1088758;39;20228;-79
2022/10/27 02:49:45;;;;;;;6.72;3.42;;;;;;;12.39;81.52;100685.44;1087777;54;20046;-79
2022/10/27 02:50:50;;;;;;;7.80;3.88;;;;;;;12.39;81.47;100683.63;1087858;54;20030;-79
2022/10/27 02:51:52;;;;;;;10.10;4.35;;;;;;;12.37;81.80;100682.09;1087789;54;20749;-79
2022/10/27 02:52:56;;;;;;;8.68;4.00;;;;;;;12.30;82.01;100690.69;1087834;54;20030;-79
2022/10/27 02:53:57;;;;;;;6.40;3.53;;;;;;;12.24;82.36;100683.19;1087871;54;20030;-78
2022/10/27 02:55:02;;;;;;;9.77;4.30;;;;;;;12.22;82.43;100692.38;1087714;54;20018;-79
2022/10/27 02:56:03;;;;;;;8.27;3.85;;;;;;;12.16;82.56;100691.09;1087861;54;20062;-78
2022/10/27 02:57:08;;;;;;;7.97;4.05;;;;;;;12.22;82.53;100695.91;1087828;54;20098;-79
2022/10/27 02:58:09;;;;;;;7.50;4.20;;;;;;;12.22;82.24;100700.41;1090868;39;20523;-79
2022/10/27 02:59:13;;;;;;;6.18;3.65;;;;;;;12.25;81.80;100701.00;1087793;54;20369;-79
2022/10/27 03:00:16;;;;;;;6.47;3.63;;;;;;;12.24;81.90;100687.69;1087825;54;20594;-79
2022/10/27 03:01:20;;;;;;;6.72;3.67;;;;;;;12.23;82.22;100702.13;1087833;54;20034;-78
2022/10/27 03:02:22;;;;;;;7.25;4.00;;;;;;;12.25;81.90;100700.13;1087743;54;20042;-79
2022/10/27 03:03:27;;;;;;;7.07;3.60;;;;;;;12.20;81.66;100692.50;1087788;54;20037;-79
2022/10/27 03:04:31;;;;;;;9.38;4.15;;;;;;;12.13;82.00;100696.72;1087878;54;20030;-79
2022/10/27 03:05:35;;;;;;;13.02;4.30;;;;;;;12.11;81.91;100694.19;1087773;54;20037;-79
2022/10/27 03:06:37;;;;;;;7.88;4.03;;;;;;;12.15;82.19;100697.44;1087869;54;20061;-79
2022/10/27 03:07:41;;;;;;;7.10;4.13;;;;;;;12.11;81.92;100694.19;1087709;54;20094;-79
2022/10/27 03:08:42;;;;;;;7.75;4.25;;;;;;;12.14;81.71;100695.75;1087884;54;20037;-78
2022/10/27 03:09:46;;;;;;;7.13;3.45;;;;;;;12.17;81.75;100698.16;1087895;54;20694;-79
2022/10/27 03:10:48;;;;;;;6.47;3.30;;;;;;;12.18;81.79;100697.19;1087749;54;20792;-78
2022/10/27 03:11:52;;;;;;;6.47;3.60;;;;;;;12.20;81.73;100700.53;1087834;54;20098;-78
2022/10/27 03:12:53;;;;;;;5.90;3.47;;;;;;;12.21;81.50;100698.72;1088228;39;20950;-79
2022/10/27 03:13:58;;;;;;;7.75;3.38;;;;;;;12.24;81.72;100701.09;1087837;54;21147;-79
2022/10/27 03:14:59;;;;;;;9.00;3.67;;;;;;;12.20;81.83;100691.66;1087743;54;20023;-79
2022/10/27 03:16:03;;;;;;;7.28;3.95;;;;;;;12.23;81.83;100694.91;1087906;54;20050;-80
2022/10/27 03:17:05;;;;;;;8.10;3.80;;;;;;;12.26;81.32;100699.13;1087825;54;20961;-79
2022/10/27 03:18:09;;;;;;;9.07;3.70;;;;;;;12.27;81.45;100696.34;1089373;31;20759;-79
2022/10/27 03:19:10;;;;;;;7.10;3.75;;;;;;;12.28;81.54;100698.00;1089278;39;20602;-79
2022/10/27 03:20:18;;;;;;;6.18;3.65;;;;;;;12.24;81.30;100691.25;1088592;31;20682;-80
2022/10/27 03:21:19;;;;;;;8.10;3.90;;;;;;;12.24;81.33;100696.59;1087843;54;20039;-79
2022/10/27 03:22:23;;;;;;;8.55;3.90;;;;;;;12.27;81.27;100692.78;1087811;54;20042;-80
2022/10/27 03:23:25;;;;;;;6.38;3.65;;;;;;;12.28;81.01;100692.66;1087737;54;20095;-80
2022/10/27 03:24:29;;;;;;;6.15;3.58;;;;;;;12.29;81.17;100696.19;1087826;54;20034;-80
2022/10/27 03:25:30;;;;;;;6.40;3.25;;;;;;;12.23;81.27;100689.56;1087745;54;20744;-79
2022/10/27 03:26:35;;;;;;;7.63;3.53;;;;;;;12.27;81.09;100692.78;1087859;54;20035;-80
2022/10/27 03:27:38;;;;;;;9.65;4.13;;;;;;;12.15;81.90;100694.75;1087741;54;20038;-79
2022/10/27 03:28:42;;;;;;;8.77;4.15;;;;;;;12.05;82.32;100699.25;1087244;54;20031;-80
2022/10/27 03:29:44;;;;;;;10.63;4.47;;;;;;;11.92;82.65;100700.31;1088684;46;20030;-80
2022/10/27 03:30:48;;;;;;;9.15;4.20;;;;;;;11.86;83.13;100700.88;1087774;54;20030;-79
2022/10/27 03:31:49;;;;;;;9.70;4.85;;;;;;;11.84;83.33;100701.03;1087830;54;20769;-79
2022/10/27 03:32:54;;;;;;;8.75;4.10;;;;;;;11.81;83.50;100697.75;1087762;54;20053;-79
2022/10/27 03:33:56;;;;;;;8.75;5.00;;;;;;;11.81;83.53;100705.78;1087793;54;20065;-78
2022/10/27 03:35:00;;;;;;;8.30;4.90;;;;;;;11.84;83.06;100702.84;1087814;54;20034;-79
2022/10/27 03:36:07;;;;;;;10.32;4.93;;;;;;;11.87;83.13;100707.94;1087736;54;20069;-80
2022/10/27 03:37:09;;;;;;;7.70;4.40;;;;;;;11.89;82.78;100705.13;1087738;54;20038;-79
2022/10/27 03:38:13;;;;;;;8.32;4.50;;;;;;;11.95;82.67;100696.53;1090285;39;20300;-79
2022/10/27 03:39:17;;;;;;;9.40;3.90;;;;;;;11.98;82.59;100699.81;1087783;54;20103;-80
2022/10/27 03:40:21;;;;;;;8.93;4.28;;;;;;;11.97;82.17;100703.50;1087840;54;20041;-80
2022/10/27 03:41:25;;;;;;;7.15;4.07;;;;;;;12.00;82.13;100703.19;1087770;54;20034;-80
2022/10/27 03:42:26;;;;;;;6.30;3.55;;;;;;;12.00;82.20;100703.19;1087807;54;20157;-80
2022/10/27 03:43:30;;;;;;;8.65;4.80;;;;;;;11.97;81.91;100698.13;1087801;54;20042;-80
2022/10/27 03:44:35;;;;;;;7.38;4.18;;;;;;;11.97;82.16;100699.91;1088162;46;20061;-79
2022/10/27 03:45:39;;;;;;;8.55;4.43;;;;;;;12.01;81.86;100696.84;1087635;54;20057;-79
2022/10/27 03:46:41;;;;;;;8.50;4.30;;;;;;;12.04;81.80;100692.19;1088343;46;20053;-79
2022/10/27 03:47:45;;;;;;;6.13;3.65;;;;;;;12.09;81.65;100698.00;1087655;54;20724;-79
2022/10/27 03:48:46;;;;;;;6.72;3.97;;;;;;;12.11;81.70;100696.88;1087713;54;20057;-79
2022/10/27 03:49:50;;;;;;;7.43;4.10;;;;;;;12.12;81.33;100697.72;1087684;54;20072;-80
2022/10/27 03:50:52;;;;;;;6.78;3.63;;;;;;;12.13;81.41;100692.22;1087726;54;20057;-79
2022/10/27 03:51:58;;;;;;;6.25;3.25;;;;;;;12.16;81.28;100696.47;1087743;54;20049;-80
2022/10/27 03:53:02;;;;;;;6.50;3.38;;;;;;;12.17;81.21;100700.84;1087823;54;20030;-79
2022/10/27 03:54:07;;;;;;;5.72;3.10;;;;;;;12.14;81.15;100699.25;1087703;54;20030;-79
2022/10/27 03:55:09;;;;;;;7.85;3.80;;;;;;;12.14;81.42;100693.06;1088649;39;20479;-80
2022/10/27 03:56:14;;;;;;;7.05;3.50;;;;;;;12.12;81.38;100695.91;1087774;54;20031;-80
2022/10/27 03:57:16;;;;;;;6.68;3.63;;;;;;;12.13;81.02;100696.72;1087712;54;20038;-80
2022/10/27 03:58:20;;;;;;;6.32;3.63;;;;;;;12.14;81.07;100693.91;1087909;54;20030;-80
2022/10/27 03:59:22;;;;;;;11.57;3.90;;;;;;;12.13;81.09;100691.38;1087784;54;20689;-80
2022/10/27 04:00:27;;;;;;;7.40;3.50;;;;;;;12.14;81.30;100693.91;1087840;54;20031;-79
2022/10/27 04:01:34;;;;;;;6.70;3.83;;;;;;;12.14;81.27;100691.22;1087676;54;20815;-79
2022/10/27 04:02:35;;;;;;;6.60;3.35;;;;;;;12.14;81.20;100693.06;1087814;54;20065;-79
2022/10/27 04:03:39;;;;;;;6.32;3.30;;;;;;;12.16;81.31;100696.47;1087760;54;20764;-79
2022/10/27 04:04:41;;;;;;;6.53;3.20;;;;;;;12.15;81.20;100694.75;1087739;54;20018;-79
2022/10/27 04:05:45;;;;;;;6.97;3.20;;;;;;;12.17;81.24;100699.00;1087662;54;20031;-80
2022/10/27 04:06:46;;;;;;;5.90;2.95;;;;;;;12.15;81.10;100694.75;1087776;54;20073;-80
2022/10/27 04:07:53;;;;;;;6.03;3.40;;;;;;;12.13;81.02;100691.38;1087730;54;20034;-79
2022/10/27 04:08:57;;;;;;;7.82;3.85;;;;;;;12.13;80.93;100694.91;1087653;54;20027;-80
2022/10/27 04:09:59;;;;;;;6.82;3.72;;;;;;;12.12;80.62;100692.34;1087773;54;20034;-79
2022/10/27 04:11:03;;;;;;;7.68;3.63;;;;;;;12.15;80.70;100697.44;1087762;54;20081;-79
2022/10/27 04:12:05;;;;;;;6.55;3.08;;;;;;;12.16;80.91;100693.78;1087815;54;20030;-79
2022/10/27 04:13:09;;;;;;;7.65;3.30;;;;;;;12.15;80.50;100700.97;1087739;54;20031;-80
2022/10/27 04:14:10;;;;;;;7.05;3.40;;;;;;;12.14;80.53;100703.78;1087736;54;20039;-80
2022/10/27 04:15:15;;;;;;;7.63;3.60;;;;;;;12.13;80.78;100700.28;1087668;54;20106;-80
2022/10/27 04:16:16;;;;;;;6.85;3.70;;;;;;;12.14;80.55;100703.78;1087762;54;20046;-79
2022/10/27 04:17:20;;;;;;;7.43;3.35;;;;;;;12.13;80.53;100688.69;1087750;54;20090;-79
2022/10/27 04:18:22;;;;;;;6.95;3.45;;;;;;;12.13;80.52;100692.22;1088197;39;20612;-80
2022/10/27 04:19:26;;;;;;;5.38;3.30;;;;;;;12.13;80.60;100697.59;1088190;39;20476;-80
2022/10/27 04:20:31;;;;;;;7.13;3.30;;;;;;;12.07;80.53;100691.94;1087618;54;20034;-79
2022/10/27 04:21:32;;;;;;;6.85;3.60;;;;;;;12.08;80.57;100689.09;1087668;54;20034;-80
2022/10/27 04:22:37;;;;;;;6.15;3.55;;;;;;;12.09;80.68;100689.97;1090744;39;20914;-80
2022/10/27 04:23:44;;;;;;;5.40;3.30;;;;;;;12.08;80.82;100691.78;1087729;54;20053;-80
2022/10/27 04:24:47;;;;;;;5.20;3.25;;;;;;;12.08;80.51;100693.63;1087722;54;20050;-79
2022/10/27 04:25:51;;;;;;;7.72;3.22;;;;;;;12.10;80.76;100689.81;1087604;54;20039;-79
2022/10/27 04:26:53;;;;;;;6.85;2.97;;;;;;;12.11;80.55;100694.19;1090676;39;20605;-79
2022/10/27 04:28:03;;;;;;;6.03;3.60;;;;;;;12.08;80.64;100683.75;1091251;39;20699;-80
2022/10/27 04:29:05;;;;;;;5.88;3.72;;;;;;;12.08;80.44;100689.09;1087361;54;20081;-80
2022/10/27 04:30:10;;;;;;;5.40;3.15;;;;;;;12.11;80.25;100685.28;1087790;54;20053;-80
2022/10/27 04:31:12;;;;;;;7.80;3.45;;;;;;;12.09;80.47;100684.63;1088983;39;20598;-79
2022/10/27 04:32:17;;;;;;;5.32;3.13;;;;;;;12.11;80.32;100690.66;1087513;54;20685;-79
2022/10/27 04:33:20;;;;;;;7.30;3.55;;;;;;;12.11;80.48;100688.84;1087714;54;20038;-80
2022/10/27 04:34:30;;;;;;;7.72;3.30;;;;;;;12.10;80.24;100686.28;1087643;54;20035;-80
2022/10/27 04:35:32;;;;;;;6.10;3.92;;;;;;;12.06;80.52;100690.25;1087490;54;20030;-80
2022/10/27 04:36:37;;;;;;;5.97;3.40;;;;;;;12.06;80.31;100683.03;1087594;54;20022;-80
2022/10/27 04:37:38;;;;;;;5.57;3.35;;;;;;;12.07;80.17;100683.91;1087537;54;20037;-80
2022/10/27 04:38:45;;;;;;;5.63;3.35;;;;;;;12.05;80.26;100672.47;1087956;46;20033;-80
2022/10/27 04:39:46;;;;;;;7.10;3.60;;;;;;;12.02;80.08;100679.78;1087624;54;20047;-80
2022/10/27 04:40:51;;;;;;;7.45;3.75;;;;;;;12.01;80.43;100678.09;1087443;54;20769;-80
2022/10/27 04:41:52;;;;;;;6.75;3.65;;;;;;;11.98;80.26;100670.34;1087451;54;20844;-79
2022/10/27 04:42:56;;;;;;;6.40;3.60;;;;;;;11.94;80.40;100668.06;1087652;54;20057;-79
2022/10/27 04:43:58;;;;;;;7.35;3.80;;;;;;;11.90;80.61;100666.63;1087630;54;20074;-79
2022/10/27 04:45:02;;;;;;;7.53;4.20;;;;;;;11.84;80.88;100674.25;1087538;54;20033;-79
2022/10/27 04:46:06;;;;;;;7.68;3.85;;;;;;;11.83;81.13;100674.34;1087484;54;20038;-79
2022/10/27 04:47:11;;;;;;;6.15;3.63;;;;;;;11.87;80.92;100673.13;1093103;39;20448;-81
2022/10/27 04:48:13;;;;;;;7.88;4.82;;;;;;;11.88;80.94;100672.13;1088029;54;20050;-83
2022/10/27 04:49:23;;;;;;;7.28;4.32;;;;;;;11.86;80.72;100668.72;1087934;54;20014;-82
2022/10/27 04:50:25;;;;;;;7.35;4.60;;;;;;;11.79;81.14;100672.97;1087923;54;20114;-82
2022/10/27 04:51:33;;;;;;;8.55;4.45;;;;;;;11.74;81.20;100680.53;1087468;54;20042;-81
2022/10/27 04:52:34;;;;;;;8.63;5.35;;;;;;;11.67;81.24;100680.22;1090015;39;20459;-80
2022/10/27 04:53:40;;;;;;;8.93;5.50;;;;;;;11.66;81.82;100683.91;1087085;54;20042;-81
2022/10/27 04:54:44;;;;;;;8.27;5.65;;;;;;;11.57;81.97;100680.22;1087189;54;20041;-81
2022/10/27 04:55:53;;;;;;;9.82;6.07;;;;;;;11.41;82.35;100683.41;1087074;54;20568;-80
2022/10/27 04:56:55;;;;;;;15.50;7.43;;;;;;;11.24;83.42;100692.91;1087369;54;20046;-79
2022/10/27 04:58:00;;;;;;;12.02;6.68;;;;;;;11.13;84.02;100698.34;1087056;54;20263;-82
2022/10/27 04:59:02;;;;;;;15.57;7.60;;;;;;;10.94;84.84;100694.59;1087549;54;20034;-81
2022/10/27 05:00:20;;;;;;;10.38;6.28;;;;;;;10.83;85.77;100695.47;1089070;39;20444;-82
2022/10/27 05:01:22;;;;;;;11.90;6.43;;;;;;;10.76;85.89;100702.34;1088331;46;20548;-83
2022/10/27 05:02:38;;;;;;;11.25;6.97;;;;;;;10.83;85.78;100702.66;1087388;54;20030;-81
2022/10/27 05:03:40;;;;;;;9.68;6.43;;;;;;;10.84;85.54;100694.50;1087517;54;20042;-81
2022/10/27 05:04:44;;;;;;;9.30;5.80;;;;;;;10.88;84.99;100697.75;1087411;54;20064;-81
2022/10/27 05:05:48;;;;;;;10.77;5.88;;;;;;;10.96;84.62;100697.13;1092748;31;20620;-81